sensor_id;sensor_type;location;lat;lon;timestamp;pressure;altitude;pressure_sealevel;temperature;humidity
78841;BME280;68379;47.190;27.558;2024-03-08T00:02:13;100633.33;;;0.73;61.45
78841;BME280;68379;47.190;27.558;2024-03-08T00:04:46;100629.14;;;0.72;61.64
78841;BME280;68379;47.190;27.558;2024-03-08T00:07:19;100626.16;;;0.71;61.67
78841;BME280;68379;47.190;27.558;2024-03-08T00:09:51;100624.75;;;0.69;61.90
78841;BME280;68379;47.190;27.558;2024-03-08T00:12:23;100618.84;;;0.69;61.87
78841;BME280;68379;47.190;27.558;2024-03-08T00:14:57;100616.70;;;0.65;61.99
78841;BME280;68379;47.190;27.558;2024-03-08T00:17:29;100613.90;;;0.64;62.13
78841;BME280;68379;47.190;27.558;2024-03-08T00:20:01;100611.64;;;0.64;61.79
78841;BME280;68379;47.190;27.558;2024-03-08T00:22:40;100609.57;;;0.65;61.73
78841;BME280;68379;47.190;27.558;2024-03-08T00:25:14;100606.43;;;0.64;61.65
78841;BME280;68379;47.190;27.558;2024-03-08T00:27:46;100605.52;;;0.60;61.79
78841;BME280;68379;47.190;27.558;2024-03-08T00:30:19;100599.41;;;0.59;61.88
78841;BME280;68379;47.190;27.558;2024-03-08T00:32:53;100601.50;;;0.60;62.37
78841;BME280;68379;47.190;27.558;2024-03-08T00:35:26;100598.53;;;0.58;62.34
78841;BME280;68379;47.190;27.558;2024-03-08T00:37:58;100599.04;;;0.57;61.66
78841;BME280;68379;47.190;27.558;2024-03-08T00:40:30;100593.79;;;0.55;62.10
78841;BME280;68379;47.190;27.558;2024-03-08T00:43:04;100591.16;;;0.53;62.06
78841;BME280;68379;47.190;27.558;2024-03-08T00:45:34;100592.35;;;0.51;62.33
78841;BME280;68379;47.190;27.558;2024-03-08T00:48:07;100591.64;;;0.50;62.93
78841;BME280;68379;47.190;27.558;2024-03-08T00:50:40;100588.85;;;0.50;62.45
78841;BME280;68379;47.190;27.558;2024-03-08T00:53:12;100587.09;;;0.48;63.22
78841;BME280;68379;47.190;27.558;2024-03-08T00:55:43;100583.61;;;0.47;63.00
78841;BME280;68379;47.190;27.558;2024-03-08T00:58:17;100581.88;;;0.47;62.55
78841;BME280;68379;47.190;27.558;2024-03-08T01:00:50;100580.80;;;0.46;63.23
78841;BME280;68379;47.190;27.558;2024-03-08T01:03:22;100580.48;;;0.48;63.15
78841;BME280;68379;47.190;27.558;2024-03-08T01:05:55;100580.67;;;0.49;63.05
78841;BME280;68379;47.190;27.558;2024-03-08T01:08:27;100580.14;;;0.49;62.96
78841;BME280;68379;47.190;27.558;2024-03-08T01:10:59;100580.30;;;0.47;62.79
78841;BME280;68379;47.190;27.558;2024-03-08T01:13:31;100578.95;;;0.49;63.13
78841;BME280;68379;47.190;27.558;2024-03-08T01:16:03;100580.88;;;0.51;63.09
78841;BME280;68379;47.190;27.558;2024-03-08T01:18:35;100577.74;;;0.51;63.42
78841;BME280;68379;47.190;27.558;2024-03-08T01:21:07;100579.34;;;0.53;63.29
78841;BME280;68379;47.190;27.558;2024-03-08T01:23:40;100575.00;;;0.54;63.41
78841;BME280;68379;47.190;27.558;2024-03-08T01:26:12;100575.38;;;0.56;63.34
78841;BME280;68379;47.190;27.558;2024-03-08T01:28:45;100572.04;;;0.53;63.66
78841;BME280;68379;47.190;27.558;2024-03-08T01:31:17;100570.10;;;0.52;63.49
78841;BME280;68379;47.190;27.558;2024-03-08T01:33:49;100570.59;;;0.50;63.20
78841;BME280;68379;47.190;27.558;2024-03-08T01:36:20;100575.29;;;0.49;63.41
78841;BME280;68379;47.190;27.558;2024-03-08T01:38:52;100569.02;;;0.48;63.34
78841;BME280;68379;47.190;27.558;2024-03-08T01:41:24;100572.84;;;0.48;63.32
78841;BME280;68379;47.190;27.558;2024-03-08T01:43:59;100568.63;;;0.46;63.24
78841;BME280;68379;47.190;27.558;2024-03-08T01:46:33;100568.42;;;0.43;63.54
78841;BME280;68379;47.190;27.558;2024-03-08T01:49:05;100570.48;;;0.41;63.26
78841;BME280;68379;47.190;27.558;2024-03-08T01:51:37;100571.69;;;0.40;63.46
78841;BME280;68379;47.190;27.558;2024-03-08T01:54:11;100567.15;;;0.39;63.03
78841;BME280;68379;47.190;27.558;2024-03-08T01:56:45;100568.88;;;0.37;63.54
78841;BME280;68379;47.190;27.558;2024-03-08T01:59:17;100571.33;;;0.39;63.63
78841;BME280;68379;47.190;27.558;2024-03-08T02:01:52;100574.83;;;0.41;63.50
78841;BME280;68379;47.190;27.558;2024-03-08T02:04:25;100571.73;;;0.43;63.63
78841;BME280;68379;47.190;27.558;2024-03-08T02:06:57;100571.38;;;0.42;63.94
78841;BME280;68379;47.190;27.558;2024-03-08T02:09:30;100570.66;;;0.40;63.71
78841;BME280;68379;47.190;27.558;2024-03-08T02:12:03;100568.54;;;0.38;63.70
78841;BME280;68379;47.190;27.558;2024-03-08T02:14:35;100566.39;;;0.34;63.46
78841;BME280;68379;47.190;27.558;2024-03-08T02:17:07;100566.86;;;0.31;63.68
78841;BME280;68379;47.190;27.558;2024-03-08T02:19:42;100566.84;;;0.29;63.37
78841;BME280;68379;47.190;27.558;2024-03-08T02:22:14;100564.91;;;0.28;63.92
78841;BME280;68379;47.190;27.558;2024-03-08T02:24:46;100562.30;;;0.28;63.92
78841;BME280;68379;47.190;27.558;2024-03-08T02:27:25;100563.39;;;0.31;64.12
78841;BME280;68379;47.190;27.558;2024-03-08T02:29:57;100560.45;;;0.32;64.01
78841;BME280;68379;47.190;27.558;2024-03-08T02:32:30;100562.25;;;0.35;63.57
78841;BME280;68379;47.190;27.558;2024-03-08T02:35:03;100560.85;;;0.35;63.86
78841;BME280;68379;47.190;27.558;2024-03-08T02:37:40;100561.55;;;0.35;63.99
78841;BME280;68379;47.190;27.558;2024-03-08T02:40:13;100558.58;;;0.34;64.18
78841;BME280;68379;47.190;27.558;2024-03-08T02:42:45;100560.48;;;0.34;64.17
78841;BME280;68379;47.190;27.558;2024-03-08T02:45:17;100557.55;;;0.36;64.15
78841;BME280;68379;47.190;27.558;2024-03-08T02:47:48;100555.33;;;0.39;63.98
78841;BME280;68379;47.190;27.558;2024-03-08T02:50:21;100553.95;;;0.40;64.20
78841;BME280;68379;47.190;27.558;2024-03-08T02:52:53;100555.51;;;0.39;63.70
78841;BME280;68379;47.190;27.558;2024-03-08T02:55:25;100555.82;;;0.37;64.00
78841;BME280;68379;47.190;27.558;2024-03-08T02:57:57;100560.53;;;0.38;64.21
78841;BME280;68379;47.190;27.558;2024-03-08T03:00:29;100563.35;;;0.40;64.42
78841;BME280;68379;47.190;27.558;2024-03-08T03:03:03;100563.70;;;0.40;64.19
78841;BME280;68379;47.190;27.558;2024-03-08T03:05:35;100555.85;;;0.39;64.15
78841;BME280;68379;47.190;27.558;2024-03-08T03:08:07;100557.75;;;0.37;63.80
78841;BME280;68379;47.190;27.558;2024-03-08T03:10:41;100557.89;;;0.35;64.00
78841;BME280;68379;47.190;27.558;2024-03-08T03:13:13;100560.79;;;0.31;64.29
78841;BME280;68379;47.190;27.558;2024-03-08T03:15:45;100560.04;;;0.27;64.10
78841;BME280;68379;47.190;27.558;2024-03-08T03:18:17;100555.63;;;0.23;64.43
78841;BME280;68379;47.190;27.558;2024-03-08T03:20:50;100551.64;;;0.24;63.90
78841;BME280;68379;47.190;27.558;2024-03-08T03:23:22;100551.60;;;0.20;64.05
78841;BME280;68379;47.190;27.558;2024-03-08T03:25:56;100551.76;;;0.18;64.31
78841;BME280;68379;47.190;27.558;2024-03-08T03:28:30;100550.91;;;0.21;64.60
78841;BME280;68379;47.190;27.558;2024-03-08T03:31:03;100549.02;;;0.22;64.85
78841;BME280;68379;47.190;27.558;2024-03-08T03:33:36;100545.55;;;0.23;64.68
78841;BME280;68379;47.190;27.558;2024-03-08T03:36:08;100544.71;;;0.25;64.66
78841;BME280;68379;47.190;27.558;2024-03-08T03:38:40;100545.61;;;0.27;64.45
78841;BME280;68379;47.190;27.558;2024-03-08T03:41:12;100544.56;;;0.27;64.43
78841;BME280;68379;47.190;27.558;2024-03-08T03:43:44;100545.23;;;0.25;64.44
78841;BME280;68379;47.190;27.558;2024-03-08T03:46:17;100544.89;;;0.25;64.48
78841;BME280;68379;47.190;27.558;2024-03-08T03:48:49;100544.91;;;0.26;64.46
78841;BME280;68379;47.190;27.558;2024-03-08T03:51:22;100545.09;;;0.27;64.26
78841;BME280;68379;47.190;27.558;2024-03-08T03:53:55;100550.29;;;0.26;64.47
78841;BME280;68379;47.190;27.558;2024-03-08T03:56:31;100550.13;;;0.27;64.53
78841;BME280;68379;47.190;27.558;2024-03-08T03:59:02;100549.96;;;0.28;64.74
78841;BME280;68379;47.190;27.558;2024-03-08T04:01:34;100545.12;;;0.29;64.63
78841;BME280;68379;47.190;27.558;2024-03-08T04:04:07;100545.80;;;0.29;64.66
78841;BME280;68379;47.190;27.558;2024-03-08T04:06:40;100548.06;;;0.29;64.37
78841;BME280;68379;47.190;27.558;2024-03-08T04:09:12;100548.22;;;0.26;64.42
78841;BME280;68379;47.190;27.558;2024-03-08T04:11:45;100546.30;;;0.28;64.55
78841;BME280;68379;47.190;27.558;2024-03-08T04:14:16;100544.22;;;0.27;65.00
78841;BME280;68379;47.190;27.558;2024-03-08T04:16:50;100544.41;;;0.29;64.91
78841;BME280;68379;47.190;27.558;2024-03-08T04:19:22;100543.05;;;0.30;64.90
78841;BME280;68379;47.190;27.558;2024-03-08T04:21:55;100550.70;;;0.30;64.86
78841;BME280;68379;47.190;27.558;2024-03-08T04:24:27;100544.98;;;0.30;64.84
78841;BME280;68379;47.190;27.558;2024-03-08T04:27:01;100547.56;;;0.30;64.54
78841;BME280;68379;47.190;27.558;2024-03-08T04:29:33;100549.45;;;0.29;64.58
78841;BME280;68379;47.190;27.558;2024-03-08T04:32:06;100541.40;;;0.23;64.61
78841;BME280;68379;47.190;27.558;2024-03-08T04:34:38;100547.52;;;0.26;64.93
78841;BME280;68379;47.190;27.558;2024-03-08T04:37:10;100552.02;;;0.26;64.89
78841;BME280;68379;47.190;27.558;2024-03-08T04:39:44;100555.15;;;0.25;64.78
78841;BME280;68379;47.190;27.558;2024-03-08T04:42:18;100556.87;;;0.24;64.82
78841;BME280;68379;47.190;27.558;2024-03-08T04:44:51;100556.16;;;0.24;65.02
78841;BME280;68379;47.190;27.558;2024-03-08T04:47:23;100559.61;;;0.23;65.05
78841;BME280;68379;47.190;27.558;2024-03-08T04:49:56;100560.35;;;0.24;65.13
78841;BME280;68379;47.190;27.558;2024-03-08T04:52:28;100563.14;;;0.26;64.72
78841;BME280;68379;47.190;27.558;2024-03-08T04:55:01;100560.34;;;0.23;64.83
78841;BME280;68379;47.190;27.558;2024-03-08T04:57:33;100564.54;;;0.25;64.93
78841;BME280;68379;47.190;27.558;2024-03-08T05:00:07;100567.48;;;0.24;64.99
78841;BME280;68379;47.190;27.558;2024-03-08T05:02:41;100566.96;;;0.25;64.78
78841;BME280;68379;47.190;27.558;2024-03-08T05:05:16;100572.03;;;0.28;64.93
78841;BME280;68379;47.190;27.558;2024-03-08T05:07:46;100568.09;;;0.31;64.90
78841;BME280;68379;47.190;27.558;2024-03-08T05:10:18;100572.11;;;0.33;65.09
78841;BME280;68379;47.190;27.558;2024-03-08T05:12:51;100573.34;;;0.34;64.87
78841;BME280;68379;47.190;27.558;2024-03-08T05:15:23;100578.93;;;0.37;64.68
78841;BME280;68379;47.190;27.558;2024-03-08T05:17:55;100576.37;;;0.39;64.92
78841;BME280;68379;47.190;27.558;2024-03-08T05:20:28;100578.52;;;0.44;64.83
78841;BME280;68379;47.190;27.558;2024-03-08T05:23:01;100578.22;;;0.48;64.84
78841;BME280;68379;47.190;27.558;2024-03-08T05:25:34;100580.70;;;0.51;65.09
78841;BME280;68379;47.190;27.558;2024-03-08T05:28:07;100588.55;;;0.54;64.82
78841;BME280;68379;47.190;27.558;2024-03-08T05:30:41;100591.19;;;0.56;64.85
78841;BME280;68379;47.190;27.558;2024-03-08T05:33:14;100590.38;;;0.58;64.85
78841;BME280;68379;47.190;27.558;2024-03-08T05:35:46;100587.83;;;0.65;64.78
78841;BME280;68379;47.190;27.558;2024-03-08T05:38:20;100591.71;;;0.70;64.50
78841;BME280;68379;47.190;27.558;2024-03-08T05:40:53;100591.77;;;0.73;64.62
78841;BME280;68379;47.190;27.558;2024-03-08T05:43:25;100597.88;;;0.75;64.51
78841;BME280;68379;47.190;27.558;2024-03-08T05:45:57;100594.74;;;0.75;64.40
78841;BME280;68379;47.190;27.558;2024-03-08T05:48:29;100598.59;;;0.76;64.21
78841;BME280;68379;47.190;27.558;2024-03-08T05:51:03;100597.54;;;0.75;64.23
78841;BME280;68379;47.190;27.558;2024-03-08T05:53:35;100597.20;;;0.77;64.44
78841;BME280;68379;47.190;27.558;2024-03-08T05:56:07;100598.34;;;0.83;64.48
78841;BME280;68379;47.190;27.558;2024-03-08T05:58:41;100600.66;;;0.89;64.14
78841;BME280;68379;47.190;27.558;2024-03-08T06:01:14;100602.42;;;0.92;64.09
78841;BME280;68379;47.190;27.558;2024-03-08T06:03:53;100603.88;;;0.96;64.00
78841;BME280;68379;47.190;27.558;2024-03-08T06:06:29;100606.19;;;0.99;63.71
78841;BME280;68379;47.190;27.558;2024-03-08T06:09:03;100609.32;;;1.00;63.67
78841;BME280;68379;47.190;27.558;2024-03-08T06:11:41;100608.98;;;1.00;63.55
78841;BME280;68379;47.190;27.558;2024-03-08T06:14:16;100610.01;;;0.99;63.57
78841;BME280;68379;47.190;27.558;2024-03-08T06:16:48;100614.20;;;1.01;63.65
78841;BME280;68379;47.190;27.558;2024-03-08T06:19:22;100613.58;;;1.06;63.62
78841;BME280;68379;47.190;27.558;2024-03-08T06:21:55;100613.10;;;1.11;63.57
78841;BME280;68379;47.190;27.558;2024-03-08T06:24:27;100615.38;;;1.13;63.34
78841;BME280;68379;47.190;27.558;2024-03-08T06:26:59;100612.46;;;1.17;63.29
78841;BME280;68379;47.190;27.558;2024-03-08T06:29:31;100609.77;;;1.25;63.17
78841;BME280;68379;47.190;27.558;2024-03-08T06:32:03;100608.45;;;1.32;62.92
78841;BME280;68379;47.190;27.558;2024-03-08T06:34:36;100608.55;;;1.42;62.55
78841;BME280;68379;47.190;27.558;2024-03-08T06:37:08;100607.57;;;1.47;62.54
78841;BME280;68379;47.190;27.558;2024-03-08T06:39:41;100608.27;;;1.50;62.17
78841;BME280;68379;47.190;27.558;2024-03-08T06:42:14;100610.63;;;1.58;62.51
78841;BME280;68379;47.190;27.558;2024-03-08T06:44:50;100611.88;;;1.60;62.14
78841;BME280;68379;47.190;27.558;2024-03-08T06:47:22;100608.77;;;1.64;61.51
78841;BME280;68379;47.190;27.558;2024-03-08T06:49:57;100610.35;;;1.66;60.94
78841;BME280;68379;47.190;27.558;2024-03-08T06:52:31;100609.14;;;1.67;60.70
78841;BME280;68379;47.190;27.558;2024-03-08T06:55:04;100608.80;;;1.68;61.05
78841;BME280;68379;47.190;27.558;2024-03-08T06:57:37;100610.70;;;1.66;61.06
78841;BME280;68379;47.190;27.558;2024-03-08T07:00:12;100611.65;;;1.75;61.06
78841;BME280;68379;47.190;27.558;2024-03-08T07:02:48;100611.56;;;1.85;60.62
78841;BME280;68379;47.190;27.558;2024-03-08T07:05:21;100608.01;;;1.98;60.72
78841;BME280;68379;47.190;27.558;2024-03-08T07:07:56;100604.45;;;2.12;60.82
78841;BME280;68379;47.190;27.558;2024-03-08T07:10:28;100606.06;;;2.18;60.18
78841;BME280;68379;47.190;27.558;2024-03-08T07:13:00;100606.48;;;2.27;60.47
78841;BME280;68379;47.190;27.558;2024-03-08T07:15:35;100605.30;;;2.34;60.87
78841;BME280;68379;47.190;27.558;2024-03-08T07:18:07;100606.38;;;2.39;60.36
78841;BME280;68379;47.190;27.558;2024-03-08T07:20:45;100604.25;;;2.33;60.44
78841;BME280;68379;47.190;27.558;2024-03-08T07:23:17;100604.76;;;2.30;59.95
78841;BME280;68379;47.190;27.558;2024-03-08T07:26:03;100607.11;;;2.43;59.83
78841;BME280;68379;47.190;27.558;2024-03-08T07:28:34;100605.43;;;2.55;59.77
78841;BME280;68379;47.190;27.558;2024-03-08T07:31:07;100603.02;;;2.59;59.25
78841;BME280;68379;47.190;27.558;2024-03-08T07:33:51;100602.33;;;2.61;58.65
78841;BME280;68379;47.190;27.558;2024-03-08T07:36:23;100604.31;;;2.74;58.83
78841;BME280;68379;47.190;27.558;2024-03-08T07:38:56;100599.98;;;2.83;59.04
78841;BME280;68379;47.190;27.558;2024-03-08T07:41:28;100598.99;;;2.98;59.34
78841;BME280;68379;47.190;27.558;2024-03-08T07:44:00;100600.77;;;3.03;58.54
78841;BME280;68379;47.190;27.558;2024-03-08T07:46:33;100600.23;;;3.02;57.65
78841;BME280;68379;47.190;27.558;2024-03-08T07:49:06;100600.23;;;3.00;56.67
78841;BME280;68379;47.190;27.558;2024-03-08T07:51:41;100597.43;;;2.98;57.86
78841;BME280;68379;47.190;27.558;2024-03-08T07:54:13;100594.66;;;3.04;57.72
78841;BME280;68379;47.190;27.558;2024-03-08T07:56:45;100596.24;;;3.11;57.41
78841;BME280;68379;47.190;27.558;2024-03-08T07:59:17;100599.42;;;3.27;57.34
78841;BME280;68379;47.190;27.558;2024-03-08T08:01:51;100598.58;;;3.33;57.08
78841;BME280;68379;47.190;27.558;2024-03-08T08:04:23;100599.99;;;3.44;57.94
78841;BME280;68379;47.190;27.558;2024-03-08T08:06:56;100601.93;;;3.55;57.35
78841;BME280;68379;47.190;27.558;2024-03-08T08:09:28;100599.31;;;3.56;54.99
78841;BME280;68379;47.190;27.558;2024-03-08T08:12:05;100599.84;;;3.56;56.36
78841;BME280;68379;47.190;27.558;2024-03-08T08:14:37;100598.80;;;3.65;56.19
78841;BME280;68379;47.190;27.558;2024-03-08T08:17:11;100604.58;;;3.75;56.05
78841;BME280;68379;47.190;27.558;2024-03-08T08:19:44;100598.45;;;3.66;56.44
78841;BME280;68379;47.190;27.558;2024-03-08T08:22:16;100598.98;;;3.65;56.90
78841;BME280;68379;47.190;27.558;2024-03-08T08:24:51;100600.37;;;3.69;56.34
78841;BME280;68379;47.190;27.558;2024-03-08T08:27:24;100597.77;;;3.79;55.44
78841;BME280;68379;47.190;27.558;2024-03-08T08:29:56;100597.23;;;3.84;54.98
78841;BME280;68379;47.190;27.558;2024-03-08T08:32:28;100596.90;;;3.96;55.31
78841;BME280;68379;47.190;27.558;2024-03-08T08:35:00;100592.34;;;4.08;55.67
78841;BME280;68379;47.190;27.558;2024-03-08T08:37:32;100592.50;;;4.17;55.91
78841;BME280;68379;47.190;27.558;2024-03-08T08:40:07;100598.95;;;4.26;55.69
78841;BME280;68379;47.190;27.558;2024-03-08T08:45:42;100591.09;;;4.19;54.68
78841;BME280;68379;47.190;27.558;2024-03-08T08:48:15;100591.81;;;4.09;55.46
78841;BME280;68379;47.190;27.558;2024-03-08T08:50:47;100595.14;;;4.19;55.46
78841;BME280;68379;47.190;27.558;2024-03-08T08:53:20;100590.38;;;4.25;54.10
78841;BME280;68379;47.190;27.558;2024-03-08T08:55:52;100586.52;;;4.36;54.05
78841;BME280;68379;47.190;27.558;2024-03-08T08:58:24;100585.27;;;4.46;54.02
78841;BME280;68379;47.190;27.558;2024-03-08T09:00:59;100576.33;;;4.57;54.14
78841;BME280;68379;47.190;27.558;2024-03-08T09:03:31;100575.98;;;4.55;54.87
78841;BME280;68379;47.190;27.558;2024-03-08T09:06:06;100570.71;;;4.58;54.94
78841;BME280;68379;47.190;27.558;2024-03-08T09:08:40;100576.29;;;4.67;53.89
78841;BME280;68379;47.190;27.558;2024-03-08T09:11:12;100572.08;;;4.69;52.36
78841;BME280;68379;47.190;27.558;2024-03-08T09:13:45;100573.16;;;4.58;53.25
78841;BME280;68379;47.190;27.558;2024-03-08T09:16:18;100572.30;;;4.57;54.08
78841;BME280;68379;47.190;27.558;2024-03-08T09:18:50;100570.73;;;4.55;53.22
78841;BME280;68379;47.190;27.558;2024-03-08T09:21:24;100569.71;;;4.44;53.94
78841;BME280;68379;47.190;27.558;2024-03-08T09:23:57;100573.55;;;4.44;53.62
78841;BME280;68379;47.190;27.558;2024-03-08T09:26:29;100572.33;;;4.46;52.60
78841;BME280;68379;47.190;27.558;2024-03-08T09:29:02;100575.66;;;4.42;53.55
78841;BME280;68379;47.190;27.558;2024-03-08T09:31:35;100571.95;;;4.57;52.98
78841;BME280;68379;47.190;27.558;2024-03-08T09:34:08;100572.08;;;4.71;53.27
78841;BME280;68379;47.190;27.558;2024-03-08T09:36:40;100578.70;;;4.77;52.23
78841;BME280;68379;47.190;27.558;2024-03-08T09:39:13;100576.48;;;4.66;51.67
78841;BME280;68379;47.190;27.558;2024-03-08T09:41:47;100568.93;;;4.69;52.04
78841;BME280;68379;47.190;27.558;2024-03-08T09:44:19;100569.42;;;4.77;51.92
78841;BME280;68379;47.190;27.558;2024-03-08T09:46:52;100569.40;;;4.82;51.86
78841;BME280;68379;47.190;27.558;2024-03-08T09:49:24;100568.78;;;4.62;51.53
78841;BME280;68379;47.190;27.558;2024-03-08T09:51:56;100564.81;;;4.39;51.69
78841;BME280;68379;47.190;27.558;2024-03-08T09:54:28;100563.25;;;4.36;52.48
78841;BME280;68379;47.190;27.558;2024-03-08T09:57:00;100563.20;;;4.56;52.25
78841;BME280;68379;47.190;27.558;2024-03-08T09:59:34;100565.23;;;4.75;52.50
78841;BME280;68379;47.190;27.558;2024-03-08T10:02:19;100561.11;;;4.97;51.27
78841;BME280;68379;47.190;27.558;2024-03-08T10:04:52;100564.88;;;5.14;51.67
78841;BME280;68379;47.190;27.558;2024-03-08T10:07:26;100558.41;;;5.13;51.14
78841;BME280;68379;47.190;27.558;2024-03-08T10:09:59;100558.80;;;5.04;50.99
78841;BME280;68379;47.190;27.558;2024-03-08T10:12:31;100550.40;;;5.02;51.25
78841;BME280;68379;47.190;27.558;2024-03-08T10:15:05;100545.61;;;5.13;51.87
78841;BME280;68379;47.190;27.558;2024-03-08T10:17:38;100545.02;;;5.24;50.85
78841;BME280;68379;47.190;27.558;2024-03-08T10:20:16;100545.48;;;5.34;51.60
78841;BME280;68379;47.190;27.558;2024-03-08T10:22:49;100541.03;;;5.44;51.68
78841;BME280;68379;47.190;27.558;2024-03-08T10:25:22;100537.67;;;5.45;50.90
78841;BME280;68379;47.190;27.558;2024-03-08T10:27:54;100537.50;;;5.47;50.21
78841;BME280;68379;47.190;27.558;2024-03-08T10:30:27;100538.29;;;5.58;51.53
78841;BME280;68379;47.190;27.558;2024-03-08T10:33:00;100528.08;;;5.64;50.99
78841;BME280;68379;47.190;27.558;2024-03-08T10:35:38;100525.84;;;5.80;50.96
78841;BME280;68379;47.190;27.558;2024-03-08T10:38:15;100529.72;;;6.00;50.41
78841;BME280;68379;47.190;27.558;2024-03-08T10:40:50;100522.41;;;5.91;49.31
78841;BME280;68379;47.190;27.558;2024-03-08T10:43:25;100520.11;;;5.92;50.69
78841;BME280;68379;47.190;27.558;2024-03-08T10:46:10;100519.66;;;6.06;50.04
78841;BME280;68379;47.190;27.558;2024-03-08T10:48:50;100521.04;;;5.88;49.77
78841;BME280;68379;47.190;27.558;2024-03-08T10:51:24;100519.23;;;5.73;49.92
78841;BME280;68379;47.190;27.558;2024-03-08T10:53:57;100516.86;;;5.63;50.44
78841;BME280;68379;47.190;27.558;2024-03-08T10:56:33;100516.38;;;5.58;50.03
78841;BME280;68379;47.190;27.558;2024-03-08T10:59:05;100515.43;;;5.47;50.42
78841;BME280;68379;47.190;27.558;2024-03-08T11:01:38;100514.02;;;5.47;49.93
78841;BME280;68379;47.190;27.558;2024-03-08T11:04:11;100512.61;;;5.46;49.76
78841;BME280;68379;47.190;27.558;2024-03-08T11:06:47;100503.65;;;5.49;49.72
78841;BME280;68379;47.190;27.558;2024-03-08T11:09:37;100507.48;;;5.51;49.67
78841;BME280;68379;47.190;27.558;2024-03-08T11:12:25;100505.39;;;5.52;49.80
78841;BME280;68379;47.190;27.558;2024-03-08T11:15:01;100502.05;;;5.53;49.43
78841;BME280;68379;47.190;27.558;2024-03-08T11:17:47;100499.34;;;5.41;49.63
78841;BME280;68379;47.190;27.558;2024-03-08T11:20:23;100503.29;;;5.28;50.36
78841;BME280;68379;47.190;27.558;2024-03-08T11:22:59;100502.42;;;5.27;49.82
78841;BME280;68379;47.190;27.558;2024-03-08T11:25:38;100503.68;;;5.22;49.90
78841;BME280;68379;47.190;27.558;2024-03-08T11:28:18;100498.85;;;5.13;49.84
78841;BME280;68379;47.190;27.558;2024-03-08T11:31:25;100496.23;;;5.10;50.29
78841;BME280;68379;47.190;27.558;2024-03-08T11:33:58;100490.34;;;5.28;49.92
78841;BME280;68379;47.190;27.558;2024-03-08T11:36:36;100486.23;;;5.37;50.04
78841;BME280;68379;47.190;27.558;2024-03-08T11:39:09;100483.14;;;5.49;49.62
78841;BME280;68379;47.190;27.558;2024-03-08T11:41:46;100486.33;;;5.68;50.05
78841;BME280;68379;47.190;27.558;2024-03-08T11:44:18;100482.14;;;5.84;49.48
78841;BME280;68379;47.190;27.558;2024-03-08T11:46:52;100481.17;;;5.96;48.96
78841;BME280;68379;47.190;27.558;2024-03-08T11:49:24;100473.02;;;6.04;49.50
78841;BME280;68379;47.190;27.558;2024-03-08T11:51:57;100475.96;;;6.08;49.47
78841;BME280;68379;47.190;27.558;2024-03-08T11:54:31;100472.53;;;6.17;49.17
78841;BME280;68379;47.190;27.558;2024-03-08T11:57:05;100468.48;;;6.19;48.70
78841;BME280;68379;47.190;27.558;2024-03-08T11:59:40;100463.23;;;6.18;49.41
78841;BME280;68379;47.190;27.558;2024-03-08T12:02:13;100458.83;;;6.34;49.37
78841;BME280;68379;47.190;27.558;2024-03-08T12:04:45;100453.44;;;6.43;49.08
78841;BME280;68379;47.190;27.558;2024-03-08T12:07:17;100457.06;;;6.48;48.32
78841;BME280;68379;47.190;27.558;2024-03-08T12:10:18;100460.95;;;6.16;47.56
78841;BME280;68379;47.190;27.558;2024-03-08T12:12:53;100459.19;;;5.64;48.54
78841;BME280;68379;47.190;27.558;2024-03-08T12:15:26;100457.20;;;5.53;48.78
78841;BME280;68379;47.190;27.558;2024-03-08T12:17:58;100455.66;;;5.67;48.73
78841;BME280;68379;47.190;27.558;2024-03-08T12:20:31;100449.84;;;5.71;48.66
78841;BME280;68379;47.190;27.558;2024-03-08T12:23:04;100451.09;;;5.69;48.79
78841;BME280;68379;47.190;27.558;2024-03-08T12:25:35;100448.00;;;5.80;49.09
78841;BME280;68379;47.190;27.558;2024-03-08T12:28:11;100445.75;;;5.95;48.86
78841;BME280;68379;47.190;27.558;2024-03-08T12:30:50;100442.02;;;6.00;48.85
78841;BME280;68379;47.190;27.558;2024-03-08T12:33:24;100442.52;;;6.04;48.95
78841;BME280;68379;47.190;27.558;2024-03-08T12:35:56;100439.58;;;5.99;48.40
78841;BME280;68379;47.190;27.558;2024-03-08T12:38:31;100436.98;;;5.76;48.35
78841;BME280;68379;47.190;27.558;2024-03-08T12:41:05;100438.05;;;5.57;48.52
78841;BME280;68379;47.190;27.558;2024-03-08T12:43:40;100436.48;;;5.55;48.93
78841;BME280;68379;47.190;27.558;2024-03-08T12:46:12;100442.48;;;5.50;48.89
78841;BME280;68379;47.190;27.558;2024-03-08T12:48:45;100438.35;;;5.43;48.77
78841;BME280;68379;47.190;27.558;2024-03-08T12:51:17;100437.48;;;5.42;49.11
78841;BME280;68379;47.190;27.558;2024-03-08T12:53:50;100438.89;;;5.41;49.09
78841;BME280;68379;47.190;27.558;2024-03-08T12:56:33;100436.69;;;5.32;49.26
78841;BME280;68379;47.190;27.558;2024-03-08T12:59:06;100432.05;;;5.21;49.21
78841;BME280;68379;47.190;27.558;2024-03-08T13:01:39;100430.09;;;5.26;49.55
78841;BME280;68379;47.190;27.558;2024-03-08T13:04:11;100424.33;;;5.43;49.33
78841;BME280;68379;47.190;27.558;2024-03-08T13:06:43;100414.23;;;5.52;49.13
78841;BME280;68379;47.190;27.558;2024-03-08T13:09:17;100411.70;;;5.62;49.48
78841;BME280;68379;47.190;27.558;2024-03-08T13:11:50;100409.60;;;5.79;48.97
78841;BME280;68379;47.190;27.558;2024-03-08T13:14:22;100404.85;;;5.81;48.96
78841;BME280;68379;47.190;27.558;2024-03-08T13:16:54;100405.63;;;5.89;49.14
78841;BME280;68379;47.190;27.558;2024-03-08T13:19:26;100397.36;;;5.94;48.88
78841;BME280;68379;47.190;27.558;2024-03-08T13:22:01;100398.83;;;5.86;48.86
78841;BME280;68379;47.190;27.558;2024-03-08T13:24:35;100400.54;;;5.73;48.98
78841;BME280;68379;47.190;27.558;2024-03-08T13:27:07;100399.02;;;5.68;48.87